Flight Track Log - Related Links

Times and Time Zones

All times are in EDT time to prevent confusion due to time zone crossing. See the VH-VQB flight status page for this flight to view local times or setup timezone preferences in your user account.

Time Position Orientation Groundspeed Altitude Reporting Facility
EDT Latitude Longitude Course Direction KTS MPH feet Rate Location/Type
Mon 04:13:53 PM -38.0280 144.4720 348° North 2 2  Level FlightAware ADS-B
Mon 04:20:45 PM -38.0270 144.4710 360° North 6 7 127 Level FlightAware ADS-B
Mon 04:21:25 PM -38.0280 144.4690 238° Southwest 10 12 611 Level FlightAware ADS-B
Mon 04:21:53 PM -38.0370 144.4680 185° South 120 138 971 Level FlightAware ADS-B
Mon 04:22:03 PM -38.0450 144.4670 186° South 145 167 1,650 Level FlightAware ADS-B
Mon 04:22:33 PM -38.0650 144.4630 189° South 151 174 1,100 1,902 Climbing FlightAware ADS-B
Mon 04:22:44 PM -38.0720 144.4620 186° South 165 190 1,300 1,857 Climbing FlightAware ADS-B
Mon 04:23:15 PM -38.0910 144.4820 169° South 197 227 2,400 2,353 Climbing FlightAware ADS-B
Mon 04:23:35 PM -38.0850 144.5030 70° East 197 227 3,300 2,229 Climbing FlightAware ADS-B
Mon 04:23:50 PM -38.0760 144.5140 44° Northeast 214 246 3,700 1,440 Climbing FlightAware ADS-B
Mon 04:24:00 PM -38.0680 144.5260 50° Northeast 234 269 3,900 1,733 Climbing FlightAware ADS-B
Mon 04:24:35 PM -38.0420 144.5690 52° Northeast 288 331 5,000 1,900 Climbing FlightAware ADS-B
Mon 04:25:00 PM -38.0230 144.6010 53° Northeast 318 366 5,800 2,400 Climbing FlightAware ADS-B
Mon 04:25:10 PM -38.0120 144.6180 51° Northeast 324 373 6,400 3,720 Climbing FlightAware ADS-B
Mon 04:25:50 PM -37.9720 144.6770 49° Northeast 327 376 8,900 3,871 Climbing FlightAware ADS-B
Mon 04:26:12 PM -37.9485 144.7109 49° Northeast 330 380 10,400 2,862 Climbing Aus ATC (RADAR)
Mon 04:26:55 PM -37.9060 144.7750 49° Northeast 354 407 12,000 2,747 Climbing FlightAware ADS-B
Mon 04:27:35 PM -37.8640 144.8380 50° Northeast 354 407 14,200 2,700 Climbing FlightAware ADS-B
Mon 04:28:15 PM -37.8190 144.9050 50° Northeast 374 430 15,600 2,250 Climbing FlightAware ADS-B
Mon 04:28:55 PM -37.7730 144.9730 49° Northeast 386 444 17,200 2,750 Climbing FlightAware ADS-B
Mon 04:29:27 PM -37.7356 145.0294 49° Northeast 390 449 18,900 2,550 Climbing Aus ATC (RADAR)
Mon 04:29:35 PM -37.7270 145.0420 49° Northeast 391 450 18,900 2,231 Level FlightAware ADS-B
Mon 04:30:45 PM -37.6450 145.1640 50° Northeast 394 453 21,800 2,205 Climbing FlightAware ADS-B
Mon 04:32:21 PM -37.5268 145.3388 50° Northeast 410 472 25,000 1,754 Climbing Aus ATC (RADAR)
Mon 04:33:00 PM -37.4966 145.3837 50° Northeast  Level FlightAware Approximate
Mon 04:34:00 PM -37.4040 145.5210 50° Northeast 424 488 27,500  Level FlightAware ADS-B
Mon 04:34:21 PM -37.3753 145.5621 50° Northeast 425 489 28,300 1,650 Climbing Aus ATC (RADAR)
Mon 04:34:40 PM -37.3520 145.5960 50° Northeast 426 490 28,600 1,527 Climbing FlightAware ADS-B
Mon 04:35:16 PM -37.3044 145.6654 50° Northeast 428 493 29,700 1,200 Climbing Aus ATC (RADAR)
Mon 04:35:20 PM -37.3030 145.6690 50° Northeast 432 497 29,400 980 Descending FlightAware ADS-B
Mon 04:36:05 PM -37.2440 145.7540 49° Northeast 436 502 30,500 1,818 Climbing FlightAware ADS-B
Mon 04:36:26 PM -37.2129 145.7996 49° Northeast 436 502 31,400 1,756 Climbing Aus ATC (RADAR)
Mon 04:36:46 PM -37.1900 145.8330 49° Northeast 431 496 31,700 900 Climbing FlightAware ADS-B
Mon 04:37:26 PM -37.1380 145.9090 49° Northeast 439 505 32,300 929 Climbing FlightAware ADS-B
Mon 04:38:10 PM -37.0760 145.9980 49° Northeast 446 513 33,000 1,360 Climbing FlightAware ADS-B
Mon 04:38:41 PM -37.0336 146.0596 49° Northeast 446 513 34,000 1,050 Climbing Aus ATC (RADAR)
Mon 04:38:50 PM -37.0220 146.0760 49° Northeast 450 518 33,700 667 Descending FlightAware ADS-B
Mon 04:39:35 PM -36.9600 146.1650 49° Northeast 450 518 34,600 1,125 Climbing FlightAware ADS-B
Mon 04:40:10 PM -36.9130 146.2340 50° Northeast 451 519 35,200 847 Climbing FlightAware ADS-B
Mon 04:41:00 PM -36.8440 146.3320 49° Northeast 460 529 35,800 1,108 Climbing FlightAware ADS-B
Mon 04:41:15 PM -36.8200 146.3644 49° Northeast 459 528 36,400 600 Climbing Aus ATC (RADAR)
Mon 04:41:40 PM -36.7870 146.4130 49° Northeast 466 536 36,200 600 Descending FlightAware ADS-B
Mon 04:41:55 PM -36.7635 146.4454 49° Northeast 465 535 36,800 750 Climbing Aus ATC (RADAR)
Mon 04:42:20 PM -36.7310 146.4940 49° Northeast 472 543 36,700 600 Descending FlightAware ADS-B
Mon 04:42:55 PM -36.6777 146.5683 49° Northeast 473 544 37,400 400 Climbing Aus ATC (RADAR)
Mon 04:43:05 PM -36.6660 146.5870 49° Northeast 472 543 37,000 -436 Descending FlightAware ADS-B
Mon 04:43:50 PM -36.6020 146.6770 48° Northeast 472 543 37,000  Level FlightAware ADS-B
Mon 04:44:30 PM -36.5440 146.7590 49° Northeast 475 547 37,000  Level FlightAware ADS-B
Mon 04:45:10 PM -36.4850 146.8430 49° Northeast 476 548 37,000 320 Level FlightAware ADS-B
Mon 04:45:45 PM -36.4319 146.9153 49° Northeast 475 547 37,400  Climbing Aus ATC (RADAR)
Mon 04:45:55 PM -36.4200 146.9350 49° Northeast 478 550 37,000 -533 Descending FlightAware ADS-B
Mon 04:46:30 PM -36.3680 147.0070 48° Northeast 479 551 37,000  Level FlightAware ADS-B
Mon 04:47:15 PM -36.3030 147.0990 49° Northeast 480 552 37,000  Level FlightAware ADS-B
Mon 04:47:55 PM -36.2430 147.1820 48° Northeast 480 552 37,000  Level FlightAware ADS-B
Mon 04:48:35 PM -36.1840 147.2640 48° Northeast 480 552 37,000 320 Level FlightAware ADS-B
Mon 04:49:10 PM -36.1306 147.3356 48° Northeast 477 549 37,400  Climbing Aus ATC (RADAR)
Mon 04:49:20 PM -36.1200 147.3530 48° Northeast 482 555 37,000 -480 Descending FlightAware ADS-B
Mon 04:50:00 PM -36.0580 147.4380 48° Northeast 483 556 37,000 320 Level FlightAware ADS-B
Mon 04:50:35 PM -36.0049 147.5104 48° Northeast 479 551 37,400  Climbing Aus ATC (RADAR)
Mon 04:50:41 PM -35.9990 147.5200 48° Northeast 484 557 37,000 -533 Descending FlightAware ADS-B
Mon 04:51:20 PM -35.9400 147.6020 48° Northeast 484 557 37,000  Level FlightAware ADS-B
Mon 04:52:05 PM -35.8720 147.6960 48° Northeast 485 558 37,000 304 Level FlightAware ADS-B
Mon 04:52:39 PM -35.8184 147.7672 48° Northeast 482 555 37,400  Climbing Aus ATC (RADAR)
Mon 04:52:49 PM -35.8140 147.7760 48° Northeast 484 557 37,000 -471 Descending FlightAware ADS-B
Mon 04:53:30 PM -35.7460 147.8690 48° Northeast 485 558 37,000 400 Level FlightAware ADS-B
Mon 04:53:49 PM -35.7143 147.9111 48° Northeast 480 552 37,400  Climbing Aus ATC (RADAR)
Mon 04:54:22 PM -35.6730 147.9680 48° Northeast 485 558 37,000  Descending FlightAware ADS-B
Mon 04:54:59 PM -35.6094 148.0542 48° Northeast 481 554 37,400  Climbing Aus ATC (RADAR)
Mon 04:55:09 PM -35.5960 148.0730 48° Northeast 485 558 37,000 -480 Descending FlightAware ADS-B
Mon 04:55:49 PM -35.5370 148.1540 48° Northeast 485 558 37,000 300 Level FlightAware ADS-B
Mon 04:56:29 PM -35.4740 148.2377 48° Northeast 481 554 37,400  Climbing Aus ATC (RADAR)
Mon 04:56:35 PM -35.4680 148.2470 48° Northeast 485 558 37,000  Descending FlightAware ADS-B
Mon 04:57:09 PM -35.4150 148.3198 48° Northeast 480 552 37,400  Climbing Aus ATC (RADAR)
Mon 04:57:15 PM -35.4100 148.3300 48° Northeast 485 558 37,000 -471 Descending FlightAware ADS-B
Mon 04:58:00 PM -35.3480 148.4290 53° Northeast 485 558 37,000  Level FlightAware ADS-B
Mon 04:58:40 PM -35.2930 148.5170 53° Northeast 485 558 37,000  Level FlightAware ADS-B
Mon 04:59:20 PM -35.2390 148.6040 53° Northeast 468 539 37,000 375 Level FlightAware ADS-B
Mon 04:59:44 PM -35.2068 148.6538 53° Northeast 461 531 37,400  Climbing Aus ATC (RADAR)
Mon 05:00:00 PM -35.1900 148.6810 53° Northeast 464 534 37,000  Descending FlightAware ADS-B
Mon 05:00:34 PM -35.1415 148.7578 53° Northeast 459 528 37,400  Climbing Aus ATC (RADAR)
Mon 05:00:45 PM -35.1270 148.7810 53° Northeast 465 535 37,000  Descending FlightAware ADS-B
Mon 05:01:24 PM -35.0758 148.8616 53° Northeast 460 529 37,400  Climbing Aus ATC (RADAR)
Mon 05:01:25 PM -35.0750 148.8640 53° Northeast 465 535 37,000  Descending FlightAware ADS-B
Mon 05:02:04 PM -35.0232 148.9446 53° Northeast 461 531 37,400  Climbing Aus ATC (RADAR)
Mon 05:02:10 PM -35.0150 148.9570 53° Northeast 465 535 37,000 -766 Descending FlightAware ADS-B
Mon 05:02:51 PM -34.9630 149.0390 52° Northeast 466 536 36,800 -1,275 Descending FlightAware ADS-B
Mon 05:03:30 PM -34.9100 149.1220 52° Northeast 469 540 35,300 -1,429 Descending FlightAware ADS-B
Mon 05:04:15 PM -34.8650 149.1930 52° Northeast 449 517 34,800 -1,000 Descending FlightAware ADS-B
Mon 05:04:48 PM -34.8085 149.2811 52° Northeast 431 496 34,000 -2,143 Descending Aus ATC (RADAR)
Mon 05:04:57 PM -34.7990 149.2960 52° Northeast 432 497 33,300 -2,423 Descending FlightAware ADS-B
Mon 05:05:40 PM -34.7470 149.3780 52° Northeast 423 487 31,900 -1,574 Descending FlightAware ADS-B
Mon 05:05:58 PM -34.7267 149.4159 52° Northeast 413 475 31,700 -1,273 Descending Aus ATC (RADAR)
Mon 05:06:13 PM -34.7138 149.4474 63° Northeast 409 471 31,200 -3,000 Descending Aus ATC (RADAR)
Mon 05:06:20 PM -34.7090 149.4600 63° Northeast 414 476 30,600 -2,250 Descending FlightAware ADS-B
Mon 05:06:53 PM -34.6786 149.5288 63° Northeast 398 458 29,700 -2,195 Descending Aus ATC (RADAR)
Mon 05:07:01 PM -34.6730 149.5420 63° Northeast 406 467 29,100 -2,706 Descending FlightAware ADS-B
Mon 05:07:44 PM -34.6360 149.6270 62° Northeast 404 465 27,400 -2,207 Descending FlightAware ADS-B
Mon 05:08:28 PM -34.5960 149.7160 61° Northeast 397 457 25,900 -2,000 Descending FlightAware ADS-B
Mon 05:09:08 PM -34.5610 149.7960 62° Northeast 391 450 24,600 -1,527 Descending FlightAware ADS-B
Mon 05:09:23 PM -34.5485 149.8243 62° Northeast 380 437 24,500 -1,826 Descending Aus ATC (RADAR)
Mon 05:09:54 PM -34.5230 149.8820 62° Northeast 386 444 23,200 -2,282 Descending FlightAware ADS-B
Mon 05:10:34 PM -34.4900 149.9580 62° Northeast 385 443 21,800 -1,622 Descending FlightAware ADS-B
Mon 05:11:08 PM -34.4605 150.0238 62° Northeast 372 428 21,200 -1,347 Descending Aus ATC (RADAR)
Mon 05:11:23 PM -34.4481 150.0523 62° Northeast 371 427 20,700 -2,571 Descending Aus ATC (RADAR)
Mon 05:11:29 PM -34.4460 150.0570 62° Northeast 379 436 20,300 -1,650 Descending FlightAware ADS-B
Mon 05:12:03 PM -34.4152 150.1263 62° Northeast 365 420 19,600 -1,814 Descending Aus ATC (RADAR)
Mon 05:12:12 PM -34.4080 150.1420 62° Northeast 370 426 19,000 -1,920 Descending FlightAware ADS-B
Mon 05:12:53 PM -34.3750 150.2160 62° Northeast 366 421 18,000 -1,333 Descending FlightAware ADS-B
Mon 05:13:33 PM -34.3430 150.2889 62° Northeast 356 410 17,200 -1,674 Descending Aus ATC (RADAR)
Mon 05:13:36 PM -34.3410 150.2940 62° Northeast 366 421 16,800 -1,909 Descending FlightAware ADS-B
Mon 05:14:17 PM -34.3090 150.3650 61° Northeast 358 412 15,800 -947 Descending FlightAware ADS-B
Mon 05:14:33 PM -34.2952 150.3952 61° Northeast 347 399 15,900 -1,200 Climbing Aus ATC (RADAR)
Mon 05:14:57 PM -34.2780 150.4340 61° Northeast 338 389 15,000 -1,800 Descending FlightAware ADS-B
Mon 05:15:43 PM -34.2430 150.5110 61° Northeast 334 384 13,800 -1,558 Descending FlightAware ADS-B
Mon 05:16:14 PM -34.2230 150.5560 62° Northeast 321 369 13,000 -1,553 Descending FlightAware ADS-B
Mon 05:17:08 PM -34.1830 150.6450 62° Northeast 315 362 11,600 -1,576 Descending FlightAware ADS-B
Mon 05:17:53 PM -34.1530 150.7130 62° Northeast 311 358 10,400 -1,600 Descending FlightAware ADS-B
Mon 05:18:23 PM -34.1320 150.7580 61° Northeast 298 343 9,600 -1,855 Descending FlightAware ADS-B
Mon 05:18:48 PM -34.1160 150.7950 62° Northeast 299 344 8,700 -2,036 Descending FlightAware ADS-B
Mon 05:19:19 PM -34.0950 150.8410 61° Northeast 304 350 7,700 -1,800 Descending FlightAware ADS-B
Mon 05:19:28 PM -34.0890 150.8550 63° Northeast 300 345 7,500 -769 Descending FlightAware ADS-B
Mon 05:19:58 PM -34.0700 150.8970 61° Northeast 286 329 7,200 -737 Descending FlightAware ADS-B
Mon 05:20:25 PM -34.0530 150.9350 62° Northeast 284 327 6,800 -842 Descending FlightAware ADS-B
Mon 05:20:55 PM -34.0330 150.9780 61° Northeast 280 322 6,400 -814 Descending FlightAware ADS-B
Mon 05:21:24 PM -34.0070 151.0120 47° Northeast 289 333 6,000 -800 Descending FlightAware ADS-B
Mon 05:21:40 PM -33.9880 151.0160 10° North 275 316 5,800 -439 Descending FlightAware ADS-B
Mon 05:22:05 PM -33.9560 151.0130 356° North 261 300 5,700 -111 Descending FlightAware ADS-B
Mon 05:22:34 PM -33.9210 151.0080 353° North 257 296 5,700 -218 Level FlightAware ADS-B
Mon 05:23:00 PM -33.8910 151.0040 354° North 247 284 5,500 -873 Descending FlightAware ADS-B
Mon 05:23:29 PM -33.8570 150.9990 353° North 245 282 4,900 -1,100 Descending FlightAware ADS-B
Mon 05:24:00 PM -33.8220 150.9930 352° North 247 284 4,400 -1,071 Descending FlightAware ADS-B
Mon 05:24:25 PM -33.7930 150.9880 352° North 245 282 3,900 -778 Descending FlightAware ADS-B
Mon 05:24:54 PM -33.7600 150.9820 351° North 248 285 3,700 -500 Descending FlightAware ADS-B
Mon 05:25:25 PM -33.7290 150.9950 19° North 234 269 3,400 -600 Descending FlightAware ADS-B
Mon 05:25:34 PM -33.7240 151.0050 59° Northeast 222 255 3,300 -375 Descending FlightAware ADS-B
Mon 05:25:57 PM -33.7114 151.0309 59° Northeast 219 252 3,200 -889 Descending Aus ATC (RADAR)
Mon 05:26:01 PM -33.7110 151.0320 59° Northeast 222 255 2,900 -1,364 Descending FlightAware ADS-B
Mon 05:26:19 PM -33.7030 151.0520 64° Northeast 220 253 2,700 -273 Descending FlightAware ADS-B
Mon 05:26:45 PM -33.7090 151.0810 104° East 215 247 2,700  Level FlightAware ADS-B
Mon 05:27:11 PM -33.7290 151.1020 139° Southeast 213 245 2,700 346 Level FlightAware ADS-B
Mon 05:27:37 PM -33.7480 151.1201 139° Southeast 192 221 3,000  Climbing Aus ATC (RADAR)
Mon 05:27:56 PM -33.7620 151.1270 139° Southeast 175 201 2,700 -419 Descending FlightAware ADS-B
Mon 05:28:20 PM -33.7780 151.1320 165° South 183 211 2,700 -300 Level FlightAware ADS-B
Mon 05:28:36 PM -33.7920 151.1360 167° South 172 198 2,500 -955 Descending FlightAware ADS-B
Mon 05:29:04 PM -33.8140 151.1420 167° South 167 192 2,000 -931 Descending FlightAware ADS-B
Mon 05:29:34 PM -33.8350 151.1470 169° South 163 188 1,600 -800 Descending FlightAware ADS-B
Mon 05:30:04 PM -33.8570 151.1530 167° South 142 163 1,200 -857 Descending FlightAware ADS-B
Mon 05:30:23 PM -33.8680 151.1560 167° South 130 150 900 -649 Descending FlightAware ADS-B
Mon 05:30:41 PM -33.8780 151.1580 171° South 125 144 800 -625 Descending FlightAware ADS-B
Mon 05:31:11 PM -33.8950 151.1630 166° South 124 143 400 -267 Descending FlightAware ADS-B
Mon 05:31:26 PM -33.9059 151.1656 166° South 125 144 600 -643 Climbing Aus ATC (RADAR)
Mon 05:31:39 PM -33.9100 151.1660 166° South 131 151 100 -2,308 Descending FlightAware ADS-B
Mon 05:32:22 PM -33.9390 151.1740 167° South 110 127 -140 Descending FlightAware ADS-B
Mon 05:32:37 PM -33.9440 151.1750 171° South 49 56  Level FlightAware ADS-B
Mon 05:33:17 PM -33.9450 151.1780 112° Southeast 11 13  Level FlightAware ADS-B

Login

Don't have an account? Register now (free) for customized features, flight alerts, and more!